Portada
METAR-TAF:

METAR-TAF

Aeroports :

Kununurra, Austràlia

latitud: 15-46S, longitud: 128-42E, altitud: 44 m

Observació

L'informe es va fer fa 29 minuts, a les 16:00 UTC
Vent 1 kt del Est/Nord-Est
Temperatura 24°C
Humitat 89%
Pressió 1010 hPa
Visibilitat 10 km o més

METAR: YPKU 201600Z AUTO 06001KT 9999 // NCD 24/22 Q1010 RF00.0/000.0

Hora: 00:29 (16:29 UTC)

Pronòstic

L'informe es va fer fa 3 hores i 56 minuts, a les 12:33 UTC
Pronòstic vàlid del 20 a les 14 UTC al 21 a les 02 UTC
Vent 5 kt amb direcció variable
Visibilitat 10 km o més
sense núvols per sota de 1500 mi sense presència de cumulonimbus.
A partir de les 21 a les 0000 UTC
Vent 7 kt del Est/Nord-Est
Visibilitat 10 km o més
sense núvols per sota de 1500 mi sense presència de cumulonimbus.

TAF: YPKU 201233Z 2014/2102 VRB05KT CAVOK FM210000 07007KT CAVOK

Observacions i pronòstics meteorològics de més de 4000 aeroports (METAR i TAF).

Les estacions disponibles són els punts grocs i vermells al mapa.

Posi el ratolí al punt desitjat per veure el nom de l'estació.

Feu clic per veure les observacions i els pronòstics meteorològics.

Per canviar el mapa: feu clic els botons verds amb una creu de color negre per apropar; al botó verd amb un guió per allunyar la imatge; o en les fletxes verdes per a mapes adjacents.


METAR-TAF: